CheckWX is a tool to help pilots better visualize weather data.  It is not intended as a substitute for an official pre-flight weather briefing.

04:52:34 UTC

KCIN METAR
Arthur N Neu Airport
Carroll, Iowa, USA
Current

18 mins ago

KCIN 310435Z AUTO 26003KT 10SM OVC080 17/14 A3025 RMK AO2
Observed
May-31 @ 04:35 UTC
Wind
  • 260° at 3 KTS
Visibility
Flight Rules
VFR
Cloud Levels
  • Overcast at 8,000' AGL
Temperature
17°C / 63°F
Dewpoint
14°C / 57°F
Humidity
83%
Altimeter
30.25" Hg
Pressure
1024.42 hPa
Previous

38 mins ago

KCIN 310415Z AUTO 00000KT 10SM OVC085 17/13 A3025 RMK AO2
Observed
May-31 @ 04:15 UTC
Visibility
Flight Rules
VFR
Cloud Levels
  • Overcast at 8,500' AGL
Temperature
17°C / 63°F
Dewpoint
13°C / 55°F
Humidity
77%
Altimeter
30.25" Hg
Pressure
1024.42 hPa
Previous

58 mins ago

KCIN 310355Z AUTO 24004KT 10SM OVC090 17/13 A3024 RMK AO2
Observed
May-31 @ 03:55 UTC
Wind
  • 240° at 4 KTS
Visibility
Flight Rules
VFR
Cloud Levels
  • Overcast at 9,000' AGL
Temperature
17°C / 63°F
Dewpoint
13°C / 55°F
Humidity
77%
Altimeter
30.24" Hg
Pressure
1024.02 hPa